Time;durP1;ratioP1;P1;durP2;ratioP2;P2;SDS_P1;SDS_P2;PMS_P1;PMS_P2;Temp;Humidity;BMP_temperature;BMP_pressure;BME280_temperature;BME280_humidity;BME280_pressure;Samples;Min_cycle;Max_cycle;Signal;HPM_P1;HPM_P2
2022/04/21 00:00:23;;;;;;;10.60;9.50;;;;;;;;;;715377;83;26760;-70
2022/04/21 00:01:29;;;;;;;10.10;9.00;;;;;;;;;;714996;83;26843;-70
2022/04/21 00:02:32;;;;;;;9.23;8.40;;;;;;;;;;715380;83;26292;-70
2022/04/21 00:03:35;;;;;;;9.90;9.00;;;;;;;;;;715346;83;26387;-69
2022/04/21 00:04:40;;;;;;;10.25;9.25;;;;;;;;;;715208;83;26353;-71
2022/04/21 00:13:12;;;;;;;9.20;8.30;;;;;;;;;;724678;82;26234;-76
2022/04/21 00:14:15;;;;;;;9.88;8.73;;;;;;;;;;719643;82;26704;-69
2022/04/21 00:15:18;;;;;;;9.45;8.55;;;;;;;;;;741315;80;26291;-70
2022/04/21 00:20:23;;;;;;;10.30;9.20;;;;;;;;;;750477;79;26180;-71
2022/04/21 00:23:25;;;;;;;8.90;8.05;;;;;;;;;;750612;79;26734;-69
2022/04/21 00:23:53;;;;;;;8.98;8.08;;;;;;;;;;750516;79;26266;-70
2022/04/21 00:24:56;;;;;;;10.43;9.35;;;;;;;;;;750459;79;26324;-70
2022/04/21 00:28:03;;;;;;;9.30;8.40;;;;;;;;;;750667;79;26600;-70
2022/04/21 00:29:06;;;;;;;10.63;9.53;;;;;;;;;;749934;79;26258;-70
2022/04/21 00:30:10;;;;;;;10.50;9.48;;;;;;;;;;738540;80;26351;-70
2022/04/21 00:31:14;;;;;;;10.05;9.05;;;;;;;;;;726060;82;26280;-70
2022/04/21 00:32:17;;;;;;;10.18;8.98;;;;;;;;;;738402;80;26354;-70
2022/04/21 00:33:21;;;;;;;10.45;9.35;;;;;;;;;;725979;82;26717;-70
2022/04/21 00:34:24;;;;;;;9.48;8.58;;;;;;;;;;738408;80;26820;-70
2022/04/21 00:44:21;;;;;;;10.43;9.20;;;;;;;;;;736360;80;26279;-70
2022/04/21 00:54:59;;;;;;;9.73;8.80;;;;;;;;;;766422;77;26294;-73
2022/04/21 01:19:35;;;;;;;10.75;9.13;;;;;;;;;;768111;77;26159;-71
2022/04/21 01:20:39;;;;;;;12.15;9.75;;;;;;;;;;768094;77;26695;-70
2022/04/21 01:21:43;;;;;;;11.85;10.40;;;;;;;;;;768161;77;26247;-70
2022/04/21 01:22:47;;;;;;;11.68;10.48;;;;;;;;;;768171;77;26296;-72
2022/04/21 01:23:50;;;;;;;12.50;10.68;;;;;;;;;;768253;77;26712;-71
2022/04/21 01:24:53;;;;;;;13.70;12.23;;;;;;;;;;768105;77;26258;-72
2022/04/21 01:33:10;;;;;;;12.00;10.65;;;;;;;;;;766820;77;26629;-70
2022/04/21 01:34:13;;;;;;;11.60;10.40;;;;;;;;;;766778;77;26256;-69
2022/04/21 01:42:57;;;;;;;10.80;9.03;;;;;;;;;;766672;77;26642;-69
2022/04/21 01:44:00;;;;;;;10.45;9.33;;;;;;;;;;763596;77;26253;-70
2022/04/21 02:04:38;;;;;;;10.75;9.40;;;;;;;;;;761441;78;26263;-71
2022/04/21 02:13:47;;;;;;;12.85;10.23;;;;;;;;;;752075;79;26244;-71
2022/04/21 02:20:17;;;;;;;13.10;11.20;;;;;;;;;;756454;78;26687;-69
2022/04/21 02:21:22;;;;;;;11.68;10.35;;;;;;;;;;749312;77;26361;-70
2022/04/21 02:22:26;;;;;;;11.48;10.28;;;;;;;;;;767734;77;26704;-70
2022/04/21 02:23:31;;;;;;;10.95;9.83;;;;;;;;;;767167;77;26299;-69
2022/04/21 02:24:36;;;;;;;11.05;9.95;;;;;;;;;;780949;76;26237;-71
2022/04/21 02:31:05;;;;;;;12.58;11.20;;;;;;;;;;741695;80;26225;-70
2022/04/21 02:37:59;;;;;;;11.78;10.20;;;;;;;;;;766799;77;26192;-70
2022/04/21 02:39:02;;;;;;;12.78;10.82;;;;;;;;;;752850;79;26728;-70
2022/04/21 02:40:05;;;;;;;12.40;11.15;;;;;;;;;;752942;79;26263;-70
2022/04/21 02:41:08;;;;;;;12.28;10.98;;;;;;;;;;752880;79;26261;-70
2022/04/21 02:42:11;;;;;;;12.13;10.90;;;;;;;;;;752898;79;26708;-71
2022/04/21 02:43:14;;;;;;;12.23;10.90;;;;;;;;;;752962;79;26759;-72
2022/04/21 02:44:16;;;;;;;12.33;10.95;;;;;;;;;;752886;79;26267;-70
2022/04/21 02:47:35;;;;;;;12.88;11.33;;;;;;;;;;753238;79;26258;-69
2022/04/21 02:48:37;;;;;;;12.60;10.20;;;;;;;;;;752880;79;26324;-69
2022/04/21 02:49:45;;;;;;;12.60;10.78;;;;;;;;;;752987;79;26336;-70
2022/04/21 02:50:45;;;;;;;12.80;10.48;;;;;;;;;;741374;79;26300;-74
2022/04/21 02:51:48;;;;;;;12.70;11.45;;;;;;;;;;754242;78;26261;-71
2022/04/21 02:52:52;;;;;;;11.73;10.53;;;;;;;;;;754318;78;26262;-74
2022/04/21 02:57:21;;;;;;;12.07;10.40;;;;;;;;;;745454;79;26229;-69
2022/04/21 02:58:24;;;;;;;11.33;10.13;;;;;;;;;;745188;79;26725;-70
2022/04/21 02:59:27;;;;;;;13.05;10.80;;;;;;;;;;745270;79;26280;-70
2022/04/21 03:00:32;;;;;;;11.70;10.32;;;;;;;;;;745294;79;26351;-70
2022/04/21 03:01:35;;;;;;;12.23;10.55;;;;;;;;;;745262;79;26430;-71
2022/04/21 03:02:37;;;;;;;12.95;10.15;;;;;;;;;;745753;79;26718;-70
2022/04/21 03:03:40;;;;;;;11.90;10.03;;;;;;;;;;745815;79;26272;-70
2022/04/21 03:06:45;;;;;;;10.70;9.60;;;;;;;;;;742137;80;26205;-71
2022/04/21 03:07:48;;;;;;;11.97;10.65;;;;;;;;;;758034;78;26254;-70
2022/04/21 03:10:54;;;;;;;9.63;8.65;;;;;;;;;;764872;77;26261;-71
2022/04/21 03:12:01;;;;;;;10.60;9.50;;;;;;;;;;750340;79;26407;-70
2022/04/21 03:13:05;;;;;;;10.63;9.20;;;;;;;;;;750375;79;26325;-72
2022/04/21 03:14:08;;;;;;;10.82;9.78;;;;;;;;;;750336;79;26338;-72
2022/04/21 03:17:04;;;;;;;9.25;8.35;;;;;;;;;;739145;80;26277;-70
2022/04/21 03:18:08;;;;;;;10.80;9.35;;;;;;;;;;738171;80;26792;-71
2022/04/21 03:19:12;;;;;;;9.90;8.90;;;;;;;;;;738177;80;26346;-71
2022/04/21 03:24:22;;;;;;;9.40;8.50;;;;;;;;;;738216;80;26281;-70
2022/04/21 03:27:26;;;;;;;9.90;8.90;;;;;;;;;;746732;79;26215;-71
2022/04/21 03:34:22;;;;;;;11.03;9.35;;;;;;;;;;731911;80;26221;-71
2022/04/21 03:35:25;;;;;;;10.68;9.50;;;;;;;;;;714333;81;26874;-70
2022/04/21 03:36:28;;;;;;;10.28;9.20;;;;;;;;;;731480;81;26289;-70
2022/04/21 03:37:33;;;;;;;9.75;8.65;;;;;;;;;;713960;83;26305;-71
2022/04/21 03:38:39;;;;;;;11.00;9.40;;;;;;;;;;731452;81;26353;-71
2022/04/21 03:39:44;;;;;;;13.18;10.53;;;;;;;;;;714011;83;26304;-71
2022/04/21 03:40:48;;;;;;;13.40;10.28;;;;;;;;;;719283;80;26792;-71
2022/04/21 03:41:53;;;;;;;11.43;10.23;;;;;;;;;;726001;81;26363;-71
2022/04/21 03:42:57;;;;;;;10.58;9.53;;;;;;;;;;731633;81;26355;-71
2022/04/21 03:44:01;;;;;;;10.65;9.55;;;;;;;;;;726183;81;26361;-70
2022/04/21 03:48:36;;;;;;;13.00;10.38;;;;;;;;;;751962;79;26279;-70
2022/04/21 03:49:39;;;;;;;12.65;10.35;;;;;;;;;;751871;79;26272;-72
2022/04/21 03:50:46;;;;;;;11.75;10.55;;;;;;;;;;751845;79;26354;-71
2022/04/21 03:51:50;;;;;;;12.40;11.10;;;;;;;;;;751795;79;26820;-73
2022/04/21 03:52:56;;;;;;;12.73;11.43;;;;;;;;;;751767;79;26280;-72
2022/04/21 03:53:59;;;;;;;12.20;10.55;;;;;;;;;;758232;77;26698;-71
2022/04/21 03:57:06;;;;;;;11.08;9.98;;;;;;;;;;753954;79;26341;-72
2022/04/21 03:58:10;;;;;;;12.70;11.03;;;;;;;;;;750998;79;26844;-76
2022/04/21 03:59:13;;;;;;;17.82;13.53;;;;;;;;;;750937;79;26263;-73
2022/04/21 04:00:16;;;;;;;18.30;14.23;;;;;;;;;;751763;79;26793;-72
2022/04/21 04:01:21;;;;;;;16.00;13.05;;;;;;;;;;751712;79;26396;-73
2022/04/21 04:02:26;;;;;;;17.27;12.85;;;;;;;;;;752273;79;26439;-72
2022/04/21 04:03:29;;;;;;;13.95;11.43;;;;;;;;;;752474;79;26267;-72
2022/04/21 04:10:56;;;;;;;11.50;9.75;;;;;;;;;;740593;80;26342;-71
2022/04/21 04:12:00;;;;;;;10.32;9.20;;;;;;;;;;740458;80;26330;-71
2022/04/21 04:13:03;;;;;;;12.05;10.15;;;;;;;;;;740480;80;26345;-71
2022/04/21 04:14:06;;;;;;;11.38;10.18;;;;;;;;;;740602;80;26338;-72
2022/04/21 04:22:36;;;;;;;15.60;12.85;;;;;;;;;;744089;80;26302;-72
2022/04/21 04:23:39;;;;;;;13.50;12.10;;;;;;;;;;747594;79;26279;-71
2022/04/21 04:28:24;;;;;;;17.87;14.50;;;;;;;;;;757414;78;26292;-74
2022/04/21 04:29:27;;;;;;;20.55;15.35;;;;;;;;;;757650;78;26726;-73
2022/04/21 04:30:31;;;;;;;20.23;15.95;;;;;;;;;;757681;78;26328;-70
2022/04/21 04:31:36;;;;;;;17.62;15.75;;;;;;;;;;757814;78;26297;-71
2022/04/21 04:32:39;;;;;;;17.62;15.60;;;;;;;;;;757516;78;26273;-72
2022/04/21 04:33:42;;;;;;;16.75;14.65;;;;;;;;;;757508;78;26365;-72
2022/04/21 04:36:43;;;;;;;36.75;26.20;;;;;;;;;;747665;79;26315;-72
2022/04/21 04:37:46;;;;;;;38.28;28.75;;;;;;;;;;748797;79;26756;-71
2022/04/21 04:38:49;;;;;;;35.52;26.25;;;;;;;;;;748766;79;26443;-74
2022/04/21 04:39:53;;;;;;;23.40;19.73;;;;;;;;;;770278;77;26261;-72
2022/04/21 04:40:55;;;;;;;20.48;17.55;;;;;;;;;;749934;79;26794;-71
2022/04/21 04:42:16;;;;;;;17.48;15.32;;;;;;;;;;743839;80;26753;-71
2022/04/21 04:43:22;;;;;;;17.32;15.30;;;;;;;;;;743959;80;26737;-72
2022/04/21 04:48:09;;;;;;;16.48;14.30;;;;;;;;;;744473;79;26404;-74
2022/04/21 04:49:12;;;;;;;17.45;15.55;;;;;;;;;;744607;79;26732;-72
2022/04/21 04:50:15;;;;;;;19.27;15.88;;;;;;;;;;744746;79;26697;-74
2022/04/21 04:51:18;;;;;;;19.37;15.13;;;;;;;;;;744566;79;26329;-72
2022/04/21 04:52:21;;;;;;;17.07;15.20;;;;;;;;;;744546;79;26741;-72
2022/04/21 04:53:24;;;;;;;19.17;15.75;;;;;;;;;;744631;79;26276;-72
2022/04/21 04:56:44;;;;;;;17.45;14.55;;;;;;;;;;750418;79;26300;-73
2022/04/21 04:57:49;;;;;;;18.02;14.95;;;;;;;;;;750300;79;26700;-72
2022/04/21 04:58:52;;;;;;;17.20;15.25;;;;;;;;;;765730;77;26322;-71
2022/04/21 04:59:55;;;;;;;18.23;15.15;;;;;;;;;;750356;79;26283;-72
2022/04/21 05:01:17;;;;;;;18.20;15.95;;;;;;;;;;766094;77;26249;-71
2022/04/21 05:02:20;;;;;;;18.45;16.37;;;;;;;;;;740893;80;26296;-72
2022/04/21 05:08:36;;;;;;;22.37;19.10;;;;;;;;;;752877;79;26206;-73
2022/04/21 05:09:39;;;;;;;22.32;18.52;;;;;;;;;;752702;79;26269;-73
2022/04/21 05:10:42;;;;;;;22.95;17.50;;;;;;;;;;752742;79;26264;-72
2022/04/21 05:11:50;;;;;;;19.82;17.65;;;;;;;;;;752709;79;26281;-72
2022/04/21 05:12:53;;;;;;;19.92;17.45;;;;;;;;;;752772;79;26265;-73
2022/04/21 05:13:56;;;;;;;20.68;17.35;;;;;;;;;;752873;79;26273;-74
2022/04/21 05:17:02;;;;;;;20.82;17.05;;;;;;;;;;777685;76;26739;-73
2022/04/21 05:18:05;;;;;;;20.00;16.65;;;;;;;;;;777607;76;26404;-71
2022/04/21 05:19:08;;;;;;;18.98;16.37;;;;;;;;;;777608;76;26248;-72
2022/04/21 05:20:11;;;;;;;18.07;15.88;;;;;;;;;;777735;76;26240;-72
2022/04/21 05:21:15;;;;;;;18.60;16.60;;;;;;;;;;777720;76;26311;-71
2022/04/21 05:22:18;;;;;;;19.37;16.50;;;;;;;;;;777733;76;26294;-72
2022/04/21 05:23:22;;;;;;;18.07;15.60;;;;;;;;;;777675;76;26334;-73
2022/04/21 05:28:16;;;;;;;21.90;15.70;;;;;;;;;;774648;76;26670;-71
2022/04/21 05:32:02;;;;;;;19.62;16.75;;;;;;;;;;751002;79;26771;-72
2022/04/21 05:33:04;;;;;;;18.85;16.15;;;;;;;;;;764758;77;26312;-72
2022/04/21 05:37:36;;;;;;;20.05;16.40;;;;;;;;;;751395;79;26199;-72
2022/04/21 05:38:39;;;;;;;19.85;16.65;;;;;;;;;;751331;78;26327;-73
2022/04/21 05:39:42;;;;;;;22.75;18.92;;;;;;;;;;751383;79;26332;-71
2022/04/21 05:40:45;;;;;;;21.10;18.80;;;;;;;;;;751311;79;26274;-71
2022/04/21 05:41:48;;;;;;;21.40;17.70;;;;;;;;;;751383;79;26269;-72
2022/04/21 05:42:54;;;;;;;22.90;18.48;;;;;;;;;;751452;79;26277;-71
2022/04/21 05:46:00;;;;;;;27.37;18.75;;;;;;;;;;751656;79;26230;-72
2022/04/21 05:47:03;;;;;;;20.25;17.92;;;;;;;;;;764874;77;26263;-73
2022/04/21 05:48:07;;;;;;;26.23;19.05;;;;;;;;;;765728;77;26361;-75
2022/04/21 05:49:09;;;;;;;24.10;19.90;;;;;;;;;;764694;77;26254;-72
2022/04/21 05:52:15;;;;;;;20.08;17.52;;;;;;;;;;764987;77;26188;-70
2022/04/21 05:53:20;;;;;;;22.93;19.82;;;;;;;;;;775721;76;26706;-74
2022/04/21 05:56:39;;;;;;;27.00;20.82;;;;;;;;;;776023;76;26151;-72
2022/04/21 05:57:43;;;;;;;21.48;18.82;;;;;;;;;;764547;77;26254;-73
2022/04/21 05:58:46;;;;;;;24.75;20.55;;;;;;;;;;764600;77;26251;-73
2022/04/21 05:59:50;;;;;;;25.50;20.15;;;;;;;;;;764520;77;26322;-72
2022/04/21 06:00:53;;;;;;;23.70;19.75;;;;;;;;;;764316;77;26318;-72
2022/04/21 06:01:58;;;;;;;24.85;20.68;;;;;;;;;;764456;77;26267;-73
2022/04/21 06:03:01;;;;;;;23.67;19.92;;;;;;;;;;764550;77;26688;-72
2022/04/21 06:06:20;;;;;;;22.50;18.92;;;;;;;;;;765013;77;26200;-72
2022/04/21 06:07:23;;;;;;;22.20;17.32;;;;;;;;;;764899;77;26306;-73
2022/04/21 06:08:26;;;;;;;21.20;17.00;;;;;;;;;;764403;77;26269;-71
2022/04/21 06:09:29;;;;;;;21.65;17.80;;;;;;;;;;764327;77;26380;-72
2022/04/21 06:10:32;;;;;;;20.88;17.50;;;;;;;;;;764824;77;26733;-73
2022/04/21 06:11:36;;;;;;;19.15;16.57;;;;;;;;;;764932;77;26331;-75
2022/04/21 06:12:39;;;;;;;20.05;17.57;;;;;;;;;;764459;77;26355;-73
2022/04/21 06:13:43;;;;;;;21.23;17.42;;;;;;;;;;764882;77;26252;-72
2022/04/21 06:15:20;;;;;;;19.77;17.17;;;;;;;;;;765060;77;26801;-73
2022/04/21 06:16:24;;;;;;;19.27;16.70;;;;;;;;;;776784;76;26303;-73
2022/04/21 06:17:27;;;;;;;17.82;15.93;;;;;;;;;;776667;76;26245;-72
2022/04/21 06:18:30;;;;;;;18.95;16.50;;;;;;;;;;776690;76;26283;-72
2022/04/21 06:19:33;;;;;;;19.30;16.50;;;;;;;;;;775944;76;26245;-72
2022/04/21 06:20:37;;;;;;;21.05;17.05;;;;;;;;;;775712;76;26714;-72
2022/04/21 06:21:40;;;;;;;21.57;17.15;;;;;;;;;;776444;76;26789;-71
2022/04/21 06:22:42;;;;;;;19.32;16.10;;;;;;;;;;776850;76;26242;-72
2022/04/21 06:23:46;;;;;;;20.97;17.48;;;;;;;;;;776745;76;26314;-72
2022/04/21 06:26:53;;;;;;;16.23;14.43;;;;;;;;;;764085;77;26665;-72
2022/04/21 06:27:57;;;;;;;17.30;15.40;;;;;;;;;;763920;77;26327;-73
2022/04/21 06:29:02;;;;;;;17.77;15.28;;;;;;;;;;763939;77;26326;-71
2022/04/21 06:30:04;;;;;;;18.52;16.15;;;;;;;;;;764032;77;26682;-72
2022/04/21 06:31:07;;;;;;;19.02;16.62;;;;;;;;;;764010;77;26690;-71
2022/04/21 06:32:10;;;;;;;18.25;16.10;;;;;;;;;;764086;77;26732;-71
2022/04/21 06:33:13;;;;;;;17.65;15.70;;;;;;;;;;764047;77;26272;-72
2022/04/21 06:36:31;;;;;;;17.90;14.63;;;;;;;;;;764327;77;26239;-71
2022/04/21 06:48:26;;;;;;;18.12;14.40;;;;;;;;;;775530;76;26203;-72
2022/04/21 06:49:29;;;;;;;16.85;13.70;;;;;;;;;;775561;76;26299;-71
2022/04/21 06:52:31;;;;;;;17.12;13.50;;;;;;;;;;765877;77;26284;-71
2022/04/21 06:53:35;;;;;;;16.07;14.35;;;;;;;;;;765948;77;26300;-73
2022/04/21 06:56:48;;;;;;;16.60;13.18;;;;;;;;;;764138;77;26285;-72
2022/04/21 06:57:50;;;;;;;15.13;12.30;;;;;;;;;;761950;78;26261;-71
2022/04/21 06:58:53;;;;;;;12.98;11.40;;;;;;;;;;764037;77;26253;-72
2022/04/21 06:59:56;;;;;;;14.23;12.73;;;;;;;;;;763055;78;26241;-72
2022/04/21 07:00:59;;;;;;;16.75;13.58;;;;;;;;;;764185;77;26323;-72
2022/04/21 07:02:02;;;;;;;15.58;13.05;;;;;;;;;;763167;78;26244;-72
2022/04/21 07:03:07;;;;;;;15.18;13.58;;;;;;;;;;764184;77;26260;-72
2022/04/21 07:06:08;;;;;;;14.73;12.88;;;;;;;;;;765582;77;26232;-72
2022/04/21 07:07:10;;;;;;;18.27;14.00;;;;;;;;;;775263;76;26246;-72
2022/04/21 07:08:13;;;;;;;16.42;13.75;;;;;;;;;;775401;76;26787;-71
2022/04/21 07:09:18;;;;;;;15.23;13.60;;;;;;;;;;774668;76;26737;-72
2022/04/21 07:10:21;;;;;;;18.07;15.00;;;;;;;;;;774314;76;26248;-72
2022/04/21 07:11:24;;;;;;;16.70;14.10;;;;;;;;;;774414;76;26266;-73
2022/04/21 07:12:31;;;;;;;15.88;14.20;;;;;;;;;;774278;76;26315;-71
2022/04/21 07:16:33;;;;;;;14.55;12.30;;;;;;;;;;762048;78;26256;-72
2022/04/21 07:17:37;;;;;;;15.83;13.18;;;;;;;;;;767140;77;26239;-73
2022/04/21 07:18:40;;;;;;;15.13;13.38;;;;;;;;;;763491;77;26326;-71
2022/04/21 07:19:44;;;;;;;15.20;13.50;;;;;;;;;;763508;77;26259;-72
2022/04/21 07:20:48;;;;;;;18.87;14.45;;;;;;;;;;763503;77;26399;-73
2022/04/21 07:21:51;;;;;;;15.78;14.18;;;;;;;;;;763660;77;26755;-71
2022/04/21 07:22:54;;;;;;;17.45;13.95;;;;;;;;;;763478;77;26341;-71
2022/04/21 07:32:40;;;;;;;19.57;13.08;;;;;;;;;;763575;77;26756;-73
2022/04/21 07:37:13;;;;;;;16.60;12.85;;;;;;;;;;763556;77;26189;-72
2022/04/21 07:38:17;;;;;;;15.90;13.55;;;;;;;;;;763503;77;26302;-72
2022/04/21 07:48:02;;;;;;;14.93;12.33;;;;;;;;;;763522;77;26177;-71
2022/04/21 07:50:25;;;;;;;16.52;14.03;;;;;;;;;;763482;77;26319;-71
2022/04/21 07:51:30;;;;;;;14.98;13.38;;;;;;;;;;760150;77;26260;-72
2022/04/21 07:57:22;;;;;;;20.45;15.05;;;;;;;;;;763513;77;26230;-71
2022/04/21 07:58:27;;;;;;;17.75;14.63;;;;;;;;;;763554;77;26269;-72
2022/04/21 07:59:30;;;;;;;18.70;15.30;;;;;;;;;;760288;77;26263;-72
2022/04/21 08:00:38;;;;;;;17.07;15.08;;;;;;;;;;763563;77;26333;-71
2022/04/21 08:01:42;;;;;;;21.05;15.55;;;;;;;;;;762520;77;26267;-71
2022/04/21 08:02:46;;;;;;;17.57;14.65;;;;;;;;;;763482;77;26335;-72
2022/04/21 08:07:31;;;;;;;21.90;18.77;;;;;;;;;;763632;77;26183;-73
2022/04/21 08:08:35;;;;;;;21.93;18.42;;;;;;;;;;763538;77;26260;-72
2022/04/21 08:09:38;;;;;;;20.37;16.12;;;;;;;;;;763506;77;26318;-73
2022/04/21 08:10:41;;;;;;;20.68;15.48;;;;;;;;;;763512;77;26260;-71
2022/04/21 08:11:43;;;;;;;17.57;15.72;;;;;;;;;;763482;77;26256;-71
2022/04/21 08:18:15;;;;;;;18.35;15.25;;;;;;;;;;765627;77;26170;-71
2022/04/21 08:19:21;;;;;;;17.67;15.63;;;;;;;;;;765597;77;26714;-72
2022/04/21 08:20:24;;;;;;;18.92;15.85;;;;;;;;;;765754;77;26664;-71
2022/04/21 08:21:28;;;;;;;19.50;16.30;;;;;;;;;;765597;77;26246;-72
2022/04/21 08:22:32;;;;;;;19.70;15.85;;;;;;;;;;765053;77;26689;-72
2022/04/21 08:23:38;;;;;;;19.32;17.23;;;;;;;;;;765743;77;26328;-72
2022/04/21 08:32:33;;;;;;;21.60;17.67;;;;;;;;;;746663;79;26339;-71
2022/04/21 08:47:47;;;;;;;19.27;16.27;;;;;;;;;;738805;80;26648;-71
2022/04/21 08:48:53;;;;;;;18.65;15.78;;;;;;;;;;738774;80;26333;-73
2022/04/21 08:49:59;;;;;;;19.05;16.75;;;;;;;;;;738747;80;26373;-72
2022/04/21 08:51:04;;;;;;;22.90;18.73;;;;;;;;;;738890;80;26278;-71
2022/04/21 08:52:08;;;;;;;24.40;18.65;;;;;;;;;;738514;80;26280;-72
2022/04/21 08:57:13;;;;;;;20.30;17.80;;;;;;;;;;761409;78;26228;-71
2022/04/21 08:58:14;;;;;;;19.00;16.85;;;;;;;;;;761480;78;26268;-71
2022/04/21 08:59:17;;;;;;;19.10;16.45;;;;;;;;;;761429;78;26371;-72
2022/04/21 09:07:30;;;;;;;20.05;15.35;;;;;;;;;;752353;79;26634;-70
2022/04/21 09:08:34;;;;;;;17.50;15.60;;;;;;;;;;752367;79;26688;-70
2022/04/21 09:09:38;;;;;;;19.50;16.62;;;;;;;;;;752325;79;26246;-73
2022/04/21 09:10:43;;;;;;;21.48;17.37;;;;;;;;;;752468;79;26250;-71
2022/04/21 09:11:47;;;;;;;23.45;17.42;;;;;;;;;;752434;78;26245;-72
2022/04/21 09:12:52;;;;;;;20.70;17.42;;;;;;;;;;752310;78;26314;-72
2022/04/21 09:16:12;;;;;;;20.57;17.25;;;;;;;;;;752803;79;26217;-72
2022/04/21 09:17:17;;;;;;;19.73;16.17;;;;;;;;;;765346;77;26709;-73
2022/04/21 09:18:20;;;;;;;24.63;17.40;;;;;;;;;;765521;77;26308;-70
2022/04/21 09:19:25;;;;;;;20.08;16.70;;;;;;;;;;765086;77;26699;-71
2022/04/21 09:20:30;;;;;;;20.20;17.70;;;;;;;;;;765024;77;26296;-72
2022/04/21 09:21:37;;;;;;;18.85;16.30;;;;;;;;;;764886;77;26241;-71
2022/04/21 09:22:41;;;;;;;19.52;16.67;;;;;;;;;;764954;77;26245;-73
2022/04/21 09:29:29;;;;;;;20.70;18.25;;;;;;;;;;778018;76;26127;-71
2022/04/21 09:30:37;;;;;;;18.20;15.48;;;;;;;;;;767640;77;26234;-72
2022/04/21 09:31:42;;;;;;;20.32;17.02;;;;;;;;;;768040;77;26237;-72
2022/04/21 09:32:55;;;;;;;20.68;17.32;;;;;;;;;;767797;76;26756;-72
2022/04/21 09:34:17;;;;;;;21.48;16.80;;;;;;;;;;767335;76;26343;-72
2022/04/21 09:37:20;;;;;;;23.10;17.60;;;;;;;;;;762765;78;26649;-72
2022/04/21 09:38:23;;;;;;;20.60;17.52;;;;;;;;;;762720;78;26252;-71
2022/04/21 09:41:32;;;;;;;22.37;18.15;;;;;;;;;;739459;78;26287;-72
2022/04/21 09:42:35;;;;;;;23.80;17.90;;;;;;;;;;746335;79;26270;-72
2022/04/21 09:50:18;;;;;;;21.52;17.87;;;;;;;;;;765092;77;26214;-73
2022/04/21 09:51:27;;;;;;;20.17;16.90;;;;;;;;;;765852;77;26257;-71
2022/04/21 09:52:31;;;;;;;18.90;16.80;;;;;;;;;;764614;76;26746;-72
2022/04/21 09:55:37;;;;;;;19.07;16.57;;;;;;;;;;764938;77;26632;-70
2022/04/21 09:56:41;;;;;;;19.25;16.30;;;;;;;;;;740159;80;26267;-72
2022/04/21 09:57:44;;;;;;;47.88;33.13;;;;;;;;;;739110;80;26267;-71
2022/04/21 09:58:47;;;;;;;71.42;51.50;;;;;;;;;;740110;80;26704;-71
2022/04/21 09:59:50;;;;;;;48.30;35.13;;;;;;;;;;739165;80;26352;-71
2022/04/21 10:00:52;;;;;;;30.92;24.25;;;;;;;;;;739144;79;26258;-71
2022/04/21 10:01:56;;;;;;;28.98;20.95;;;;;;;;;;740244;80;26263;-72
2022/04/21 10:03:10;;;;;;;;;;;;;;;;;;;;;
2022/04/21 10:06:22;;;;;;;21.55;17.95;;;;;;;;;;739852;80;26270;-71
2022/04/21 10:07:26;;;;;;;22.65;17.90;;;;;;;;;;726622;81;26792;-70
2022/04/21 10:08:34;;;;;;;24.57;18.25;;;;;;;;;;739782;80;26829;-71
2022/04/21 10:09:37;;;;;;;22.13;17.57;;;;;;;;;;728504;80;26258;-72
2022/04/21 10:10:39;;;;;;;21.80;19.00;;;;;;;;;;751967;78;26249;-71
2022/04/21 10:11:43;;;;;;;22.32;19.35;;;;;;;;;;739099;80;26351;-72
2022/04/21 10:12:46;;;;;;;23.90;19.15;;;;;;;;;;746254;79;26767;-71
2022/04/21 10:17:31;;;;;;;21.70;18.70;;;;;;;;;;758552;78;26189;-70
2022/04/21 10:18:35;;;;;;;27.60;21.52;;;;;;;;;;758620;78;26267;-71
2022/04/21 10:26:03;;;;;;;25.77;20.10;;;;;;;;;;758836;78;26603;-71
2022/04/21 10:27:09;;;;;;;32.20;25.08;;;;;;;;;;754657;78;26346;-71
2022/04/21 10:28:30;;;;;;;32.58;26.75;;;;;;;;;;755184;78;26261;-69
2022/04/21 10:29:34;;;;;;;34.08;27.75;;;;;;;;;;758524;78;26722;-69
2022/04/21 10:30:37;;;;;;;32.30;25.37;;;;;;;;;;756223;78;26330;-68
2022/04/21 10:31:55;;;;;;;31.15;25.20;;;;;;;;;;748023;79;26794;-70
2022/04/21 10:42:07;;;;;;;27.02;21.95;;;;;;;;;;758714;78;26646;-70
2022/04/21 10:45:14;;;;;;;26.20;21.62;;;;;;;;;;758499;78;26254;-70
2022/04/21 10:46:19;;;;;;;25.50;22.37;;;;;;;;;;758518;78;26261;-70
2022/04/21 10:47:33;;;;;;;28.15;23.52;;;;;;;;;;758540;78;26358;-69
2022/04/21 10:48:43;;;;;;;27.22;21.70;;;;;;;;;;758641;78;26261;-71
2022/04/21 10:49:56;;;;;;;30.20;23.22;;;;;;;;;;758554;78;24383;-71
2022/04/21 10:50:59;;;;;;;28.15;22.48;;;;;;;;;;758538;78;26261;-70
2022/04/21 10:58:30;;;;;;;26.02;21.68;;;;;;;;;;767703;77;26321;-71
2022/04/21 10:59:34;;;;;;;24.18;21.10;;;;;;;;;;767704;77;26251;-71
2022/04/21 11:00:37;;;;;;;23.52;19.87;;;;;;;;;;768374;75;26259;-71
2022/04/21 11:01:41;;;;;;;25.17;20.50;;;;;;;;;;767873;77;26251;-72
2022/04/21 11:06:08;;;;;;;24.05;19.15;;;;;;;;;;748386;79;26596;-68
2022/04/21 11:07:12;;;;;;;27.07;19.95;;;;;;;;;;748420;79;26320;-71
2022/04/21 11:08:16;;;;;;;26.20;21.00;;;;;;;;;;748365;79;26265;-68
2022/04/21 11:09:36;;;;;;;25.40;20.92;;;;;;;;;;748382;79;26274;-68
2022/04/21 11:10:43;;;;;;;28.02;21.75;;;;;;;;;;744288;78;26711;-69
2022/04/21 11:11:47;;;;;;;26.75;21.00;;;;;;;;;;748492;79;26267;-71
2022/04/21 11:16:37;;;;;;;27.52;20.77;;;;;;;;;;734722;80;26375;-71
2022/04/21 11:17:52;;;;;;;24.12;19.42;;;;;;;;;;735791;79;26280;-71
2022/04/21 11:18:56;;;;;;;23.75;20.27;;;;;;;;;;715924;80;26291;-70
2022/04/21 11:19:59;;;;;;;22.40;18.30;;;;;;;;;;730601;80;26288;-70
2022/04/21 11:26:29;;;;;;;26.05;21.23;;;;;;;;;;747732;79;26251;-72
2022/04/21 11:27:34;;;;;;;25.10;21.52;;;;;;;;;;747642;79;26274;-70
2022/04/21 11:28:38;;;;;;;25.20;21.27;;;;;;;;;;744514;79;26720;-70
2022/04/21 11:29:41;;;;;;;26.42;23.05;;;;;;;;;;756597;77;26277;-70
2022/04/21 11:30:44;;;;;;;24.70;21.68;;;;;;;;;;756828;78;26671;-70
2022/04/21 11:31:47;;;;;;;25.68;21.37;;;;;;;;;;756762;78;26711;-69
2022/04/21 11:36:45;;;;;;;22.73;19.30;;;;;;;;;;757063;78;26280;-70
2022/04/21 11:37:52;;;;;;;22.93;19.52;;;;;;;;;;767974;77;26243;-70
2022/04/21 11:38:55;;;;;;;22.52;18.77;;;;;;;;;;770262;77;26319;-70
2022/04/21 11:39:58;;;;;;;25.05;20.97;;;;;;;;;;767746;77;26315;-70
2022/04/21 11:41:02;;;;;;;23.05;20.15;;;;;;;;;;766824;77;26332;-70
2022/04/21 11:42:05;;;;;;;25.48;21.37;;;;;;;;;;766928;77;26769;-70
2022/04/21 11:45:23;;;;;;;22.87;20.35;;;;;;;;;;767839;77;26259;-71
2022/04/21 11:46:26;;;;;;;22.80;19.85;;;;;;;;;;762793;77;26313;-72
2022/04/21 11:47:29;;;;;;;22.62;19.20;;;;;;;;;;762851;78;26681;-70
2022/04/21 11:48:34;;;;;;;25.12;20.45;;;;;;;;;;762910;78;26253;-71
2022/04/21 11:49:36;;;;;;;25.02;20.12;;;;;;;;;;762949;78;26259;-70
2022/04/21 11:50:44;;;;;;;24.60;20.60;;;;;;;;;;762988;78;26717;-72
2022/04/21 11:51:53;;;;;;;23.30;19.70;;;;;;;;;;762847;77;26753;-70
2022/04/21 11:56:38;;;;;;;20.92;18.73;;;;;;;;;;771087;77;26275;-70
2022/04/21 11:57:41;;;;;;;20.25;18.15;;;;;;;;;;770946;77;26250;-71
2022/04/21 11:58:44;;;;;;;22.50;20.20;;;;;;;;;;771047;77;26233;-69
2022/04/21 11:59:47;;;;;;;25.48;20.95;;;;;;;;;;771477;77;26245;-69
2022/04/21 12:07:16;;;;;;;19.15;17.15;;;;;;;;;;757321;78;26261;-69
2022/04/21 12:10:35;;;;;;;17.67;15.55;;;;;;;;;;756715;78;26350;-71
2022/04/21 12:11:38;;;;;;;19.20;16.65;;;;;;;;;;744310;79;26359;-71
2022/04/21 12:16:43;;;;;;;18.98;16.97;;;;;;;;;;767487;77;26206;-70
2022/04/21 12:17:46;;;;;;;22.30;17.45;;;;;;;;;;766449;77;26323;-70
2022/04/21 12:18:49;;;;;;;18.25;16.35;;;;;;;;;;766962;77;26273;-71
2022/04/21 12:19:52;;;;;;;21.15;17.37;;;;;;;;;;767207;77;26250;-71
2022/04/21 12:20:56;;;;;;;18.57;15.53;;;;;;;;;;767191;77;26257;-72
2022/04/21 12:22:07;;;;;;;17.55;15.55;;;;;;;;;;766827;77;26250;-71
2022/04/21 12:25:10;;;;;;;18.48;15.63;;;;;;;;;;769469;77;26241;-71
2022/04/21 12:26:13;;;;;;;19.55;15.90;;;;;;;;;;769758;77;26265;-70
2022/04/21 12:27:23;;;;;;;18.37;16.35;;;;;;;;;;769796;77;26265;-70
2022/04/21 12:28:25;;;;;;;17.80;15.95;;;;;;;;;;769773;77;26266;-70
2022/04/21 12:29:31;;;;;;;22.25;17.52;;;;;;;;;;769796;77;26259;-70
2022/04/21 12:30:35;;;;;;;17.67;15.88;;;;;;;;;;769763;77;26258;-72
2022/04/21 12:31:45;;;;;;;17.77;15.95;;;;;;;;;;769306;77;26267;-72
2022/04/21 12:34:37;;;;;;;18.92;16.07;;;;;;;;;;795643;74;26251;-70
2022/04/21 12:35:50;;;;;;;18.00;15.50;;;;;;;;;;781682;76;26248;-70
2022/04/21 12:39:09;;;;;;;18.87;16.00;;;;;;;;;;780958;76;26176;-69
2022/04/21 12:40:18;;;;;;;18.77;16.23;;;;;;;;;;781776;75;26248;-70
2022/04/21 12:41:24;;;;;;;17.87;15.00;;;;;;;;;;769663;77;26781;-70
2022/04/21 12:48:07;;;;;;;15.30;13.68;;;;;;;;;;757186;78;26347;-69
2022/04/21 12:49:18;;;;;;;16.23;13.15;;;;;;;;;;752823;78;26357;-69